Terminal Aerodrome Forecast
Issued by NWS Dodge City, KS

Home | Current Version | Previous Version | Graphics & Text | Print | Product List | Glossary Off
Versions: 1 2 3 4 5 6 7 8 9 10 11 12 13 14 15 16 17 18 19 20 21 22 23 24 25 26 27 28 29 30 31 32 33 34 35 36 37 38 39 40

000
FTUS43 KDDC 171727
TAFDDC
TAF
KDDC 171727Z 1718/1818 34024G35KT P6SM SKC
     FM172300 04007KT P6SM SKC
     FM180200 10008KT P6SM SKC
     FM180800 17016G24KT P6SM FEW250 WS020/20045KT
     FM181100 19018G27KT P6SM FEW250 WS020/20055KT
     FM181600 20028G40KT P6SM FEW250=

USA.gov is the U.S. government's official web portal to all federal, state and local government web resources and services.